sensor_id;sensor_type;location;lat;lon;timestamp;P1;durP1;ratioP1;P2;durP2;ratioP2
25721;SDS011;13578;53.450;15.496;2023-03-03T00:00:13;60.63;;;18.83;;
25721;SDS011;13578;53.450;15.496;2023-03-03T00:03:15;56.53;;;17.92;;
25721;SDS011;13578;53.450;15.496;2023-03-03T00:06:19;56.28;;;19.10;;
25721;SDS011;13578;53.450;15.496;2023-03-03T00:09:20;43.42;;;17.33;;
25721;SDS011;13578;53.450;15.496;2023-03-03T00:12:28;41.58;;;17.40;;
25721;SDS011;13578;53.450;15.496;2023-03-03T00:15:30;45.55;;;16.52;;
25721;SDS011;13578;53.450;15.496;2023-03-03T00:18:34;42.08;;;15.38;;
25721;SDS011;13578;53.450;15.496;2023-03-03T00:24:40;41.70;;;14.57;;
25721;SDS011;13578;53.450;15.496;2023-03-03T00:27:41;39.85;;;16.77;;
25721;SDS011;13578;53.450;15.496;2023-03-03T00:30:42;42.90;;;18.60;;
25721;SDS011;13578;53.450;15.496;2023-03-03T00:33:45;37.28;;;14.90;;
25721;SDS011;13578;53.450;15.496;2023-03-03T00:36:51;38.72;;;17.85;;
25721;SDS011;13578;53.450;15.496;2023-03-03T00:39:57;41.47;;;14.85;;
25721;SDS011;13578;53.450;15.496;2023-03-03T00:46:23;34.10;;;15.30;;
25721;SDS011;13578;53.450;15.496;2023-03-03T00:49:25;36.95;;;14.93;;
25721;SDS011;13578;53.450;15.496;2023-03-03T00:52:26;35.63;;;13.20;;
25721;SDS011;13578;53.450;15.496;2023-03-03T00:55:29;37.97;;;16.00;;
25721;SDS011;13578;53.450;15.496;2023-03-03T00:58:30;27.65;;;15.38;;
25721;SDS011;13578;53.450;15.496;2023-03-03T01:01:30;26.67;;;14.32;;
25721;SDS011;13578;53.450;15.496;2023-03-03T01:04:31;29.38;;;16.88;;
25721;SDS011;13578;53.450;15.496;2023-03-03T01:07:32;35.88;;;17.48;;
25721;SDS011;13578;53.450;15.496;2023-03-03T01:10:33;32.33;;;16.20;;
25721;SDS011;13578;53.450;15.496;2023-03-03T01:13:39;38.45;;;16.23;;
25721;SDS011;13578;53.450;15.496;2023-03-03T01:16:42;36.50;;;18.02;;
25721;SDS011;13578;53.450;15.496;2023-03-03T01:19:42;40.38;;;16.08;;
25721;SDS011;13578;53.450;15.496;2023-03-03T01:22:43;46.38;;;17.08;;
25721;SDS011;13578;53.450;15.496;2023-03-03T01:25:44;31.48;;;13.57;;
25721;SDS011;13578;53.450;15.496;2023-03-03T01:28:44;35.95;;;16.08;;
25721;SDS011;13578;53.450;15.496;2023-03-03T01:31:45;31.15;;;15.80;;
25721;SDS011;13578;53.450;15.496;2023-03-03T01:34:46;33.67;;;15.23;;
25721;SDS011;13578;53.450;15.496;2023-03-03T01:37:46;56.28;;;16.63;;
25721;SDS011;13578;53.450;15.496;2023-03-03T01:40:52;63.45;;;18.50;;
25721;SDS011;13578;53.450;15.496;2023-03-03T01:43:53;45.00;;;17.35;;
25721;SDS011;13578;53.450;15.496;2023-03-03T01:47:11;54.90;;;17.05;;
25721;SDS011;13578;53.450;15.496;2023-03-03T01:50:30;48.42;;;17.50;;
25721;SDS011;13578;53.450;15.496;2023-03-03T01:53:58;33.95;;;16.05;;
25721;SDS011;13578;53.450;15.496;2023-03-03T01:57:02;42.83;;;16.90;;
25721;SDS011;13578;53.450;15.496;2023-03-03T02:00:07;78.82;;;17.73;;
25721;SDS011;13578;53.450;15.496;2023-03-03T02:03:09;44.03;;;16.55;;
25721;SDS011;13578;53.450;15.496;2023-03-03T02:06:15;41.00;;;14.95;;
25721;SDS011;13578;53.450;15.496;2023-03-03T02:12:33;34.83;;;15.07;;
25721;SDS011;13578;53.450;15.496;2023-03-03T02:15:40;26.98;;;14.82;;
25721;SDS011;13578;53.450;15.496;2023-03-03T02:18:41;22.20;;;11.52;;
25721;SDS011;13578;53.450;15.496;2023-03-03T02:21:41;34.65;;;12.70;;
25721;SDS011;13578;53.450;15.496;2023-03-03T02:24:48;34.42;;;14.05;;
25721;SDS011;13578;53.450;15.496;2023-03-03T02:27:53;16.08;;;9.90;;
25721;SDS011;13578;53.450;15.496;2023-03-03T02:30:56;18.23;;;10.02;;
25721;SDS011;13578;53.450;15.496;2023-03-03T02:33:59;16.73;;;10.75;;
25721;SDS011;13578;53.450;15.496;2023-03-03T02:36:59;15.88;;;10.43;;
25721;SDS011;13578;53.450;15.496;2023-03-03T02:40:03;30.95;;;11.80;;
25721;SDS011;13578;53.450;15.496;2023-03-03T02:43:05;20.17;;;9.65;;
25721;SDS011;13578;53.450;15.496;2023-03-03T02:46:08;14.40;;;9.00;;
25721;SDS011;13578;53.450;15.496;2023-03-03T02:49:09;26.75;;;10.90;;
25721;SDS011;13578;53.450;15.496;2023-03-03T02:52:12;22.63;;;10.63;;
25721;SDS011;13578;53.450;15.496;2023-03-03T02:55:13;17.58;;;10.73;;
25721;SDS011;13578;53.450;15.496;2023-03-03T02:58:14;14.07;;;9.20;;
25721;SDS011;13578;53.450;15.496;2023-03-03T03:01:15;22.35;;;9.52;;
25721;SDS011;13578;53.450;15.496;2023-03-03T03:04:20;31.83;;;11.35;;
25721;SDS011;13578;53.450;15.496;2023-03-03T03:07:22;32.85;;;9.77;;
25721;SDS011;13578;53.450;15.496;2023-03-03T03:10:23;22.27;;;9.65;;
25721;SDS011;13578;53.450;15.496;2023-03-03T03:13:24;16.63;;;9.52;;
25721;SDS011;13578;53.450;15.496;2023-03-03T03:16:25;14.63;;;9.48;;
25721;SDS011;13578;53.450;15.496;2023-03-03T03:19:25;34.97;;;10.80;;
25721;SDS011;13578;53.450;15.496;2023-03-03T03:22:27;23.35;;;10.80;;
25721;SDS011;13578;53.450;15.496;2023-03-03T03:25:27;20.73;;;10.55;;
25721;SDS011;13578;53.450;15.496;2023-03-03T03:28:28;20.83;;;11.70;;
25721;SDS011;13578;53.450;15.496;2023-03-03T03:31:29;32.72;;;11.68;;
25721;SDS011;13578;53.450;15.496;2023-03-03T03:34:30;40.67;;;11.35;;
25721;SDS011;13578;53.450;15.496;2023-03-03T03:37:31;18.25;;;10.43;;
25721;SDS011;13578;53.450;15.496;2023-03-03T03:40:31;37.60;;;11.82;;
25721;SDS011;13578;53.450;15.496;2023-03-03T03:43:32;20.17;;;10.60;;
25721;SDS011;13578;53.450;15.496;2023-03-03T03:46:33;20.13;;;9.85;;
25721;SDS011;13578;53.450;15.496;2023-03-03T03:49:34;21.33;;;11.23;;
25721;SDS011;13578;53.450;15.496;2023-03-03T03:52:34;29.33;;;10.55;;
25721;SDS011;13578;53.450;15.496;2023-03-03T03:55:35;40.80;;;10.40;;
25721;SDS011;13578;53.450;15.496;2023-03-03T03:58:36;45.53;;;11.10;;
25721;SDS011;13578;53.450;15.496;2023-03-03T04:01:36;21.05;;;10.93;;
25721;SDS011;13578;53.450;15.496;2023-03-03T04:04:37;26.25;;;13.23;;
25721;SDS011;13578;53.450;15.496;2023-03-03T04:07:38;34.15;;;13.57;;
25721;SDS011;13578;53.450;15.496;2023-03-03T04:10:38;24.13;;;11.40;;
25721;SDS011;13578;53.450;15.496;2023-03-03T04:13:39;23.80;;;11.80;;
25721;SDS011;13578;53.450;15.496;2023-03-03T04:16:40;16.88;;;10.30;;
25721;SDS011;13578;53.450;15.496;2023-03-03T04:19:40;33.67;;;11.43;;
25721;SDS011;13578;53.450;15.496;2023-03-03T04:22:41;16.52;;;8.05;;
25721;SDS011;13578;53.450;15.496;2023-03-03T04:25:44;66.85;;;12.40;;
25721;SDS011;13578;53.450;15.496;2023-03-03T04:28:46;37.50;;;11.80;;
25721;SDS011;13578;53.450;15.496;2023-03-03T04:31:46;34.75;;;13.57;;
25721;SDS011;13578;53.450;15.496;2023-03-03T04:34:47;55.72;;;13.93;;
25721;SDS011;13578;53.450;15.496;2023-03-03T04:37:47;29.88;;;13.25;;
25721;SDS011;13578;53.450;15.496;2023-03-03T04:40:48;32.10;;;12.40;;
25721;SDS011;13578;53.450;15.496;2023-03-03T04:43:49;23.00;;;12.60;;
25721;SDS011;13578;53.450;15.496;2023-03-03T04:46:49;18.95;;;11.57;;
25721;SDS011;13578;53.450;15.496;2023-03-03T04:49:50;15.60;;;9.52;;
25721;SDS011;13578;53.450;15.496;2023-03-03T04:52:51;9.48;;;6.68;;
25721;SDS011;13578;53.450;15.496;2023-03-03T04:55:52;14.07;;;9.07;;
25721;SDS011;13578;53.450;15.496;2023-03-03T04:58:53;8.77;;;7.47;;
25721;SDS011;13578;53.450;15.496;2023-03-03T05:01:54;54.33;;;16.20;;
25721;SDS011;13578;53.450;15.496;2023-03-03T05:04:54;14.15;;;9.27;;
25721;SDS011;13578;53.450;15.496;2023-03-03T05:07:55;28.25;;;12.20;;
25721;SDS011;13578;53.450;15.496;2023-03-03T05:10:55;30.67;;;12.02;;
25721;SDS011;13578;53.450;15.496;2023-03-03T05:13:58;22.75;;;12.45;;
25721;SDS011;13578;53.450;15.496;2023-03-03T05:16:59;39.58;;;12.68;;
25721;SDS011;13578;53.450;15.496;2023-03-03T05:19:59;26.25;;;12.40;;
25721;SDS011;13578;53.450;15.496;2023-03-03T05:23:00;22.55;;;12.70;;
25721;SDS011;13578;53.450;15.496;2023-03-03T05:26:01;40.72;;;13.23;;
25721;SDS011;13578;53.450;15.496;2023-03-03T05:29:02;30.00;;;11.32;;
25721;SDS011;13578;53.450;15.496;2023-03-03T05:32:02;27.48;;;12.27;;
25721;SDS011;13578;53.450;15.496;2023-03-03T05:35:04;23.45;;;13.75;;
25721;SDS011;13578;53.450;15.496;2023-03-03T05:38:05;31.25;;;13.15;;
25721;SDS011;13578;53.450;15.496;2023-03-03T05:41:05;41.15;;;14.38;;
25721;SDS011;13578;53.450;15.496;2023-03-03T05:44:06;41.67;;;12.95;;
25721;SDS011;13578;53.450;15.496;2023-03-03T05:47:07;30.05;;;12.23;;
25721;SDS011;13578;53.450;15.496;2023-03-03T05:50:08;29.98;;;12.65;;
25721;SDS011;13578;53.450;15.496;2023-03-03T05:53:11;34.25;;;13.50;;
25721;SDS011;13578;53.450;15.496;2023-03-03T05:56:11;20.75;;;12.50;;
25721;SDS011;13578;53.450;15.496;2023-03-03T05:59:12;26.45;;;12.65;;
25721;SDS011;13578;53.450;15.496;2023-03-03T06:02:13;32.53;;;11.45;;
25721;SDS011;13578;53.450;15.496;2023-03-03T06:05:13;29.15;;;11.30;;
25721;SDS011;13578;53.450;15.496;2023-03-03T06:08:14;30.27;;;12.27;;
25721;SDS011;13578;53.450;15.496;2023-03-03T06:11:15;36.50;;;12.55;;
25721;SDS011;13578;53.450;15.496;2023-03-03T06:14:18;16.33;;;9.30;;
25721;SDS011;13578;53.450;15.496;2023-03-03T06:17:20;35.13;;;15.00;;
25721;SDS011;13578;53.450;15.496;2023-03-03T06:20:20;20.13;;;11.50;;
25721;SDS011;13578;53.450;15.496;2023-03-03T06:23:21;21.33;;;11.52;;
25721;SDS011;13578;53.450;15.496;2023-03-03T06:26:21;24.00;;;12.15;;
25721;SDS011;13578;53.450;15.496;2023-03-03T06:29:22;31.85;;;11.98;;
25721;SDS011;13578;53.450;15.496;2023-03-03T06:32:23;25.48;;;11.73;;
25721;SDS011;13578;53.450;15.496;2023-03-03T06:35:24;28.83;;;12.63;;
25721;SDS011;13578;53.450;15.496;2023-03-03T06:38:25;25.20;;;13.45;;
25721;SDS011;13578;53.450;15.496;2023-03-03T06:41:25;25.65;;;12.88;;
25721;SDS011;13578;53.450;15.496;2023-03-03T06:44:26;26.10;;;11.40;;
25721;SDS011;13578;53.450;15.496;2023-03-03T06:47:26;22.92;;;12.13;;
25721;SDS011;13578;53.450;15.496;2023-03-03T06:50:27;34.25;;;12.45;;
25721;SDS011;13578;53.450;15.496;2023-03-03T06:53:28;31.33;;;12.45;;
25721;SDS011;13578;53.450;15.496;2023-03-03T06:56:33;21.00;;;11.63;;
25721;SDS011;13578;53.450;15.496;2023-03-03T06:59:35;33.28;;;13.70;;
25721;SDS011;13578;53.450;15.496;2023-03-03T07:02:36;22.42;;;12.73;;
25721;SDS011;13578;53.450;15.496;2023-03-03T07:05:37;28.15;;;12.77;;
25721;SDS011;13578;53.450;15.496;2023-03-03T07:08:37;44.40;;;13.35;;
25721;SDS011;13578;53.450;15.496;2023-03-03T07:11:40;26.58;;;13.25;;
25721;SDS011;13578;53.450;15.496;2023-03-03T07:14:41;27.08;;;13.68;;
25721;SDS011;13578;53.450;15.496;2023-03-03T07:17:50;22.67;;;11.82;;
25721;SDS011;13578;53.450;15.496;2023-03-03T07:20:54;32.75;;;12.98;;
25721;SDS011;13578;53.450;15.496;2023-03-03T07:23:55;40.22;;;16.27;;
25721;SDS011;13578;53.450;15.496;2023-03-03T07:26:58;23.08;;;11.68;;
25721;SDS011;13578;53.450;15.496;2023-03-03T07:30:16;34.75;;;13.60;;
25721;SDS011;13578;53.450;15.496;2023-03-03T07:33:40;36.03;;;13.82;;
25721;SDS011;13578;53.450;15.496;2023-03-03T07:36:44;25.25;;;13.30;;
25721;SDS011;13578;53.450;15.496;2023-03-03T07:39:45;32.17;;;13.93;;
25721;SDS011;13578;53.450;15.496;2023-03-03T07:42:49;32.47;;;14.43;;
25721;SDS011;13578;53.450;15.496;2023-03-03T07:45:50;38.33;;;14.48;;
25721;SDS011;13578;53.450;15.496;2023-03-03T07:48:51;27.23;;;13.98;;
25721;SDS011;13578;53.450;15.496;2023-03-03T07:51:56;30.50;;;14.30;;
25721;SDS011;13578;53.450;15.496;2023-03-03T08:04:46;42.55;;;15.57;;
25721;SDS011;13578;53.450;15.496;2023-03-03T08:07:51;36.45;;;14.88;;
25721;SDS011;13578;53.450;15.496;2023-03-03T08:10:52;29.10;;;13.90;;
25721;SDS011;13578;53.450;15.496;2023-03-03T08:13:54;33.70;;;15.07;;
25721;SDS011;13578;53.450;15.496;2023-03-03T08:16:56;36.92;;;13.95;;
25721;SDS011;13578;53.450;15.496;2023-03-03T08:19:57;28.35;;;14.02;;
25721;SDS011;13578;53.450;15.496;2023-03-03T08:22:58;44.05;;;13.23;;
25721;SDS011;13578;53.450;15.496;2023-03-03T08:25:58;30.48;;;13.73;;
25721;SDS011;13578;53.450;15.496;2023-03-03T08:28:59;37.10;;;14.27;;
25721;SDS011;13578;53.450;15.496;2023-03-03T08:32:00;42.38;;;16.23;;
25721;SDS011;13578;53.450;15.496;2023-03-03T08:35:01;40.90;;;15.65;;
25721;SDS011;13578;53.450;15.496;2023-03-03T08:38:01;34.42;;;15.23;;
25721;SDS011;13578;53.450;15.496;2023-03-03T08:41:03;43.78;;;16.45;;
25721;SDS011;13578;53.450;15.496;2023-03-03T08:44:04;44.28;;;15.95;;
25721;SDS011;13578;53.450;15.496;2023-03-03T08:47:05;39.42;;;16.38;;
25721;SDS011;13578;53.450;15.496;2023-03-03T08:50:05;30.02;;;14.70;;
25721;SDS011;13578;53.450;15.496;2023-03-03T08:53:07;35.50;;;15.52;;
25721;SDS011;13578;53.450;15.496;2023-03-03T08:56:08;42.17;;;16.38;;
25721;SDS011;13578;53.450;15.496;2023-03-03T08:59:09;61.33;;;16.55;;
25721;SDS011;13578;53.450;15.496;2023-03-03T09:02:11;43.17;;;16.08;;
25721;SDS011;13578;53.450;15.496;2023-03-03T09:05:11;44.05;;;15.23;;
25721;SDS011;13578;53.450;15.496;2023-03-03T09:08:12;45.03;;;17.52;;
25721;SDS011;13578;53.450;15.496;2023-03-03T09:11:13;40.08;;;16.42;;
25721;SDS011;13578;53.450;15.496;2023-03-03T09:14:18;46.45;;;15.55;;
25721;SDS011;13578;53.450;15.496;2023-03-03T09:17:24;38.75;;;15.85;;
25721;SDS011;13578;53.450;15.496;2023-03-03T09:20:31;46.35;;;16.60;;
25721;SDS011;13578;53.450;15.496;2023-03-03T09:23:36;47.60;;;19.63;;
25721;SDS011;13578;53.450;15.496;2023-03-03T09:29:38;61.72;;;20.73;;
25721;SDS011;13578;53.450;15.496;2023-03-03T09:32:40;56.65;;;18.70;;
25721;SDS011;13578;53.450;15.496;2023-03-03T09:35:42;48.50;;;19.67;;
25721;SDS011;13578;53.450;15.496;2023-03-03T09:38:44;48.00;;;18.05;;
25721;SDS011;13578;53.450;15.496;2023-03-03T10:01:09;40.47;;;17.20;;
25721;SDS011;13578;53.450;15.496;2023-03-03T10:14:36;54.30;;;17.15;;
25721;SDS011;13578;53.450;15.496;2023-03-03T10:18:00;49.97;;;17.20;;
25721;SDS011;13578;53.450;15.496;2023-03-03T10:21:16;43.75;;;16.98;;
25721;SDS011;13578;53.450;15.496;2023-03-03T10:24:30;39.70;;;16.98;;
25721;SDS011;13578;53.450;15.496;2023-03-03T10:34:29;41.22;;;17.13;;
25721;SDS011;13578;53.450;15.496;2023-03-03T10:37:43;35.88;;;16.70;;
25721;SDS011;13578;53.450;15.496;2023-03-03T10:57:23;31.10;;;14.75;;
25721;SDS011;13578;53.450;15.496;2023-03-03T11:07:15;32.97;;;13.68;;
25721;SDS011;13578;53.450;15.496;2023-03-03T11:14:12;36.28;;;14.52;;
25721;SDS011;13578;53.450;15.496;2023-03-03T11:17:46;26.17;;;12.02;;
25721;SDS011;13578;53.450;15.496;2023-03-03T11:27:48;42.75;;;16.45;;
25721;SDS011;13578;53.450;15.496;2023-03-03T11:44:56;40.45;;;13.50;;
25721;SDS011;13578;53.450;15.496;2023-03-03T11:48:21;33.30;;;15.10;;
25721;SDS011;13578;53.450;15.496;2023-03-03T11:51:29;39.58;;;15.57;;
25721;SDS011;13578;53.450;15.496;2023-03-03T12:01:01;26.50;;;12.45;;
25721;SDS011;13578;53.450;15.496;2023-03-03T12:04:19;42.72;;;15.05;;
25721;SDS011;13578;53.450;15.496;2023-03-03T12:21:28;46.35;;;15.05;;
25721;SDS011;13578;53.450;15.496;2023-03-03T12:34:43;38.42;;;15.43;;
25721;SDS011;13578;53.450;15.496;2023-03-03T12:48:45;29.00;;;13.85;;
25721;SDS011;13578;53.450;15.496;2023-03-03T12:52:08;26.92;;;12.38;;
25721;SDS011;13578;53.450;15.496;2023-03-03T13:02:19;24.33;;;12.25;;
25721;SDS011;13578;53.450;15.496;2023-03-03T13:09:00;30.02;;;14.48;;
25721;SDS011;13578;53.450;15.496;2023-03-03T13:12:36;30.83;;;13.82;;
25721;SDS011;13578;53.450;15.496;2023-03-03T13:16:03;28.42;;;13.82;;
25721;SDS011;13578;53.450;15.496;2023-03-03T13:19:19;32.15;;;14.35;;
25721;SDS011;13578;53.450;15.496;2023-03-03T13:25:57;31.08;;;14.55;;
25721;SDS011;13578;53.450;15.496;2023-03-03T13:29:03;38.50;;;14.00;;
25721;SDS011;13578;53.450;15.496;2023-03-03T13:35:42;27.65;;;13.82;;
25721;SDS011;13578;53.450;15.496;2023-03-03T13:38:48;25.85;;;13.02;;
25721;SDS011;13578;53.450;15.496;2023-03-03T13:41:56;30.15;;;13.85;;
25721;SDS011;13578;53.450;15.496;2023-03-03T13:45:02;28.25;;;14.18;;
25721;SDS011;13578;53.450;15.496;2023-03-03T13:52:01;27.38;;;14.18;;
25721;SDS011;13578;53.450;15.496;2023-03-03T13:55:13;31.85;;;14.20;;
25721;SDS011;13578;53.450;15.496;2023-03-03T14:01:47;29.85;;;15.10;;
25721;SDS011;13578;53.450;15.496;2023-03-03T14:05:09;29.83;;;12.98;;
25721;SDS011;13578;53.450;15.496;2023-03-03T14:11:41;29.85;;;14.95;;
25721;SDS011;13578;53.450;15.496;2023-03-03T14:21:34;28.20;;;14.85;;
25721;SDS011;13578;53.450;15.496;2023-03-03T14:25:00;30.27;;;13.63;;
25721;SDS011;13578;53.450;15.496;2023-03-03T14:28:11;29.70;;;14.05;;
25721;SDS011;13578;53.450;15.496;2023-03-03T14:31:20;33.00;;;14.07;;
25721;SDS011;13578;53.450;15.496;2023-03-03T14:37:27;32.33;;;16.40;;
25721;SDS011;13578;53.450;15.496;2023-03-03T14:40:42;34.17;;;14.25;;
25721;SDS011;13578;53.450;15.496;2023-03-03T14:47:02;33.00;;;16.45;;
25721;SDS011;13578;53.450;15.496;2023-03-03T14:53:34;35.03;;;16.83;;
25721;SDS011;13578;53.450;15.496;2023-03-03T14:56:37;33.95;;;16.48;;
25721;SDS011;13578;53.450;15.496;2023-03-03T15:03:20;28.90;;;13.95;;
25721;SDS011;13578;53.450;15.496;2023-03-03T15:06:42;35.75;;;15.80;;
25721;SDS011;13578;53.450;15.496;2023-03-03T15:09:48;36.22;;;16.27;;
25721;SDS011;13578;53.450;15.496;2023-03-03T15:12:49;31.70;;;16.60;;
25721;SDS011;13578;53.450;15.496;2023-03-03T15:26:25;30.17;;;15.23;;
25721;SDS011;13578;53.450;15.496;2023-03-03T15:33:24;30.92;;;16.35;;
25721;SDS011;13578;53.450;15.496;2023-03-03T15:40:02;27.95;;;15.27;;
25721;SDS011;13578;53.450;15.496;2023-03-03T15:46:34;27.73;;;14.65;;
25721;SDS011;13578;53.450;15.496;2023-03-03T15:56:56;26.58;;;15.93;;
25721;SDS011;13578;53.450;15.496;2023-03-03T16:00:15;31.75;;;16.70;;
25721;SDS011;13578;53.450;15.496;2023-03-03T16:03:34;35.40;;;16.70;;
25721;SDS011;13578;53.450;15.496;2023-03-03T16:16:53;28.33;;;15.02;;
25721;SDS011;13578;53.450;15.496;2023-03-03T16:20:18;32.08;;;16.42;;
25721;SDS011;13578;53.450;15.496;2023-03-03T16:23:44;27.73;;;13.85;;
25721;SDS011;13578;53.450;15.496;2023-03-03T16:40:14;29.05;;;14.27;;
25721;SDS011;13578;53.450;15.496;2023-03-03T16:46:41;25.17;;;13.15;;
25721;SDS011;13578;53.450;15.496;2023-03-03T16:50:10;24.23;;;12.87;;
25721;SDS011;13578;53.450;15.496;2023-03-03T17:00:21;27.67;;;13.48;;
25721;SDS011;13578;53.450;15.496;2023-03-03T17:03:41;25.08;;;13.32;;
25721;SDS011;13578;53.450;15.496;2023-03-03T17:06:58;25.10;;;12.95;;
25721;SDS011;13578;53.450;15.496;2023-03-03T17:10:19;24.02;;;12.63;;
25721;SDS011;13578;53.450;15.496;2023-03-03T17:16:51;31.52;;;13.32;;
25721;SDS011;13578;53.450;15.496;2023-03-03T17:20:08;26.52;;;12.75;;
25721;SDS011;13578;53.450;15.496;2023-03-03T17:29:55;19.92;;;9.88;;
25721;SDS011;13578;53.450;15.496;2023-03-03T17:45:33;23.63;;;12.13;;
25721;SDS011;13578;53.450;15.496;2023-03-03T17:48:58;27.30;;;12.93;;
25721;SDS011;13578;53.450;15.496;2023-03-03T17:52:38;26.13;;;13.38;;
25721;SDS011;13578;53.450;15.496;2023-03-03T17:56:00;30.55;;;14.80;;
25721;SDS011;13578;53.450;15.496;2023-03-03T18:08:51;24.27;;;12.15;;
25721;SDS011;13578;53.450;15.496;2023-03-03T18:15:52;25.35;;;12.80;;
25721;SDS011;13578;53.450;15.496;2023-03-03T18:19:11;23.27;;;12.50;;
25721;SDS011;13578;53.450;15.496;2023-03-03T18:23:06;24.92;;;13.00;;
25721;SDS011;13578;53.450;15.496;2023-03-03T18:25:58;20.42;;;11.88;;
25721;SDS011;13578;53.450;15.496;2023-03-03T18:32:19;24.95;;;13.20;;
25721;SDS011;13578;53.450;15.496;2023-03-03T18:35:34;19.63;;;12.43;;
25721;SDS011;13578;53.450;15.496;2023-03-03T18:38:37;23.42;;;12.13;;
25721;SDS011;13578;53.450;15.496;2023-03-03T18:45:09;27.90;;;12.05;;
25721;SDS011;13578;53.450;15.496;2023-03-03T18:49:12;17.98;;;9.82;;
25721;SDS011;13578;53.450;15.496;2023-03-03T18:52:15;22.23;;;12.40;;
25721;SDS011;13578;53.450;15.496;2023-03-03T18:55:21;17.08;;;12.05;;
25721;SDS011;13578;53.450;15.496;2023-03-03T19:01:54;19.48;;;11.20;;
25721;SDS011;13578;53.450;15.496;2023-03-03T19:05:21;23.10;;;12.95;;
25721;SDS011;13578;53.450;15.496;2023-03-03T19:11:41;28.98;;;13.93;;
25721;SDS011;13578;53.450;15.496;2023-03-03T19:14:49;25.57;;;13.30;;
25721;SDS011;13578;53.450;15.496;2023-03-03T19:17:50;20.20;;;11.57;;
25721;SDS011;13578;53.450;15.496;2023-03-03T19:20:57;19.40;;;11.60;;
25721;SDS011;13578;53.450;15.496;2023-03-03T19:27:34;13.70;;;9.00;;
25721;SDS011;13578;53.450;15.496;2023-03-03T19:31:07;17.70;;;9.13;;
25721;SDS011;13578;53.450;15.496;2023-03-03T19:34:19;14.30;;;8.77;;
25721;SDS011;13578;53.450;15.496;2023-03-03T19:44:14;22.70;;;12.07;;
25721;SDS011;13578;53.450;15.496;2023-03-03T19:47:43;12.50;;;9.45;;
25721;SDS011;13578;53.450;15.496;2023-03-03T19:57:44;16.52;;;8.45;;
25721;SDS011;13578;53.450;15.496;2023-03-03T20:01:24;16.38;;;11.07;;
25721;SDS011;13578;53.450;15.496;2023-03-03T20:04:40;16.35;;;10.20;;
25721;SDS011;13578;53.450;15.496;2023-03-03T20:15:39;20.42;;;12.07;;
25721;SDS011;13578;53.450;15.496;2023-03-03T20:18:28;15.07;;;10.25;;
25721;SDS011;13578;53.450;15.496;2023-03-03T20:25:19;16.20;;;10.07;;
25721;SDS011;13578;53.450;15.496;2023-03-03T20:28:52;20.30;;;12.57;;
25721;SDS011;13578;53.450;15.496;2023-03-03T20:35:38;17.73;;;10.75;;
25721;SDS011;13578;53.450;15.496;2023-03-03T20:42:09;22.80;;;11.15;;
25721;SDS011;13578;53.450;15.496;2023-03-03T21:41:00;29.65;;;15.40;;
25721;SDS011;13578;53.450;15.496;2023-03-03T21:44:01;31.47;;;15.60;;
25721;SDS011;13578;53.450;15.496;2023-03-03T21:47:40;34.10;;;15.00;;
25721;SDS011;13578;53.450;15.496;2023-03-03T21:50:41;42.75;;;17.33;;
25721;SDS011;13578;53.450;15.496;2023-03-03T21:53:43;30.48;;;15.15;;
25721;SDS011;13578;53.450;15.496;2023-03-03T21:56:44;31.92;;;14.55;;
25721;SDS011;13578;53.450;15.496;2023-03-03T21:59:47;33.53;;;16.60;;
25721;SDS011;13578;53.450;15.496;2023-03-03T22:02:47;37.05;;;17.83;;
25721;SDS011;13578;53.450;15.496;2023-03-03T22:05:48;34.78;;;13.18;;
25721;SDS011;13578;53.450;15.496;2023-03-03T22:08:48;35.97;;;17.20;;
25721;SDS011;13578;53.450;15.496;2023-03-03T22:11:49;32.63;;;17.80;;
25721;SDS011;13578;53.450;15.496;2023-03-03T22:14:49;38.22;;;18.35;;
25721;SDS011;13578;53.450;15.496;2023-03-03T22:17:50;30.10;;;16.70;;
25721;SDS011;13578;53.450;15.496;2023-03-03T22:20:51;32.75;;;16.50;;
25721;SDS011;13578;53.450;15.496;2023-03-03T22:23:51;38.55;;;16.42;;
25721;SDS011;13578;53.450;15.496;2023-03-03T22:26:52;38.67;;;17.52;;
25721;SDS011;13578;53.450;15.496;2023-03-03T22:29:53;40.40;;;17.63;;
25721;SDS011;13578;53.450;15.496;2023-03-03T22:32:53;36.58;;;18.67;;
25721;SDS011;13578;53.450;15.496;2023-03-03T22:35:54;35.47;;;18.50;;
25721;SDS011;13578;53.450;15.496;2023-03-03T22:38:54;36.05;;;17.20;;
25721;SDS011;13578;53.450;15.496;2023-03-03T22:41:55;29.45;;;16.65;;
25721;SDS011;13578;53.450;15.496;2023-03-03T22:44:56;28.63;;;15.38;;
25721;SDS011;13578;53.450;15.496;2023-03-03T22:47:56;24.48;;;14.52;;
25721;SDS011;13578;53.450;15.496;2023-03-03T22:50:57;30.38;;;15.55;;
25721;SDS011;13578;53.450;15.496;2023-03-03T22:53:58;35.13;;;15.57;;
25721;SDS011;13578;53.450;15.496;2023-03-03T22:56:58;29.80;;;16.45;;
25721;SDS011;13578;53.450;15.496;2023-03-03T22:59:59;28.02;;;15.95;;
25721;SDS011;13578;53.450;15.496;2023-03-03T23:03:01;30.58;;;16.65;;
25721;SDS011;13578;53.450;15.496;2023-03-03T23:06:02;32.80;;;17.17;;
25721;SDS011;13578;53.450;15.496;2023-03-03T23:09:02;23.75;;;12.38;;
25721;SDS011;13578;53.450;15.496;2023-03-03T23:12:03;35.30;;;16.27;;
25721;SDS011;13578;53.450;15.496;2023-03-03T23:15:04;31.98;;;17.70;;
25721;SDS011;13578;53.450;15.496;2023-03-03T23:18:12;20.95;;;13.35;;
25721;SDS011;13578;53.450;15.496;2023-03-03T23:21:12;34.78;;;16.45;;
25721;SDS011;13578;53.450;15.496;2023-03-03T23:24:13;34.55;;;15.65;;
25721;SDS011;13578;53.450;15.496;2023-03-03T23:27:13;31.15;;;16.70;;
25721;SDS011;13578;53.450;15.496;2023-03-03T23:30:15;28.40;;;14.82;;
25721;SDS011;13578;53.450;15.496;2023-03-03T23:33:17;33.33;;;16.10;;
25721;SDS011;13578;53.450;15.496;2023-03-03T23:36:18;30.90;;;16.42;;
25721;SDS011;13578;53.450;15.496;2023-03-03T23:39:19;24.10;;;15.07;;
25721;SDS011;13578;53.450;15.496;2023-03-03T23:42:19;33.30;;;16.15;;
25721;SDS011;13578;53.450;15.496;2023-03-03T23:45:20;30.88;;;15.77;;
25721;SDS011;13578;53.450;15.496;2023-03-03T23:48:21;29.23;;;15.18;;
25721;SDS011;13578;53.450;15.496;2023-03-03T23:51:21;25.15;;;11.85;;
25721;SDS011;13578;53.450;15.496;2023-03-03T23:54:22;22.15;;;12.95;;
25721;SDS011;13578;53.450;15.496;2023-03-03T23:57:23;29.92;;;15.38;;
